Time;durP1;ratioP1;P1;durP2;ratioP2;P2;SDS_P1;SDS_P2;PMS_P1;PMS_P2;Temp;Humidity;BMP_temperature;BMP_pressure;BME280_temperature;BME280_humidity;BME280_pressure;Samples;Min_cycle;Max_cycle;Signal;HPM_P1;HPM_P2
2023/02/13 16:53:04;;;;;;;;;;;;;;;;;;2191606;58;18269;-58
2023/02/13 16:55:34;;;;;;;;;;;;;;;;;;2198565;59;21001;-64
2023/02/13 16:58:04;;;;;;;;;;;;;;;;;;2201473;59;21912;-66
2023/02/13 17:00:35;;;;;;;;;;;;;;;;;;2209947;59;2066;-57
2023/02/13 17:03:06;;;;;;;;;;;;;;;;;;2205993;59;2129;-58
2023/02/13 17:05:37;;;;;;;;;;;;;;;;;;2210202;59;1956;-59
2023/02/13 17:08:07;;;;;;;;;;;;;;;;;;2206058;59;2015;-58
2023/02/13 17:10:37;;;;;;;;;;;;;;;;;;2209660;59;2226;-56
2023/02/13 17:13:07;;;;;;;;;;;;;;;;;;2209429;59;2001;-56
2023/02/13 17:15:42;;;;;;;;;;;;;;;;;;2206697;59;2012;-55
2023/02/13 17:18:12;;;;;;;;;;;;;;;;;;2209947;59;2055;-60
2023/02/13 17:20:43;;;;;;;;;;;;;;;;;;2210110;59;2657;-60
2023/02/13 17:23:13;;;;;;;;;;;;;;;;;;2207652;59;2147;-58
2023/02/13 17:25:46;;;;;;;;;;;;;;;;;;2206869;58;2037;-58
2023/02/13 17:28:17;;;;;;;;;;;;;;;;;;2209382;59;2000;-60
2023/02/13 17:30:48;;;;;;;;;;;;;;;;;;2208784;59;2018;-57
2023/02/13 17:33:19;;;;;;;;;;;;;;;;;;2208462;59;1935;-55
2023/02/13 17:35:50;;;;;;;;;;;;;;;;;;2206122;59;1998;-54
2023/02/13 17:38:20;;;;;;;;;;;;;;;;;;2209472;59;1978;-53
2023/02/13 17:40:50;;;;;;;;;;;;;;;;;;2210345;59;1934;-54
2023/02/13 17:43:20;;;;;;;;;;;;;;;;;;2210685;59;1130;-54
2023/02/13 17:45:51;;;;;;;;;;;;;;;;;;2210961;59;2007;-56
2023/02/13 17:48:22;;;;;;;;;;;;;;;;;;2210641;67;1165;-52
2023/02/13 17:50:53;;;;;;;;;;;;;;;;;;2210306;59;2028;-55
2023/02/13 17:53:24;;;;;;;;;;;;;;;;;;2211036;67;1556;-52
2023/02/13 17:55:54;;;;;;;;;;;;;;;;;;2210887;59;1955;-57
2023/02/13 17:58:24;;;;;;;;;;;;;;;;;;2209344;59;2016;-55
2023/02/13 18:00:54;;;;;;;;;;;;;;;;;;2208681;59;2018;-54
2023/02/13 18:03:24;;;;;;;;;;;;;;;;;;2206971;59;2097;-52
2023/02/13 18:05:55;;;;;;;;;;;;;;;;;;2207642;59;2003;-52
2023/02/13 18:08:25;;;;;;;;;;;;;;;;;;2207713;66;1185;-54
2023/02/13 18:10:55;;;;;;;;;;;;;;;;;;2207503;59;1947;-53
2023/02/13 18:13:25;;;;;;;;;;;;;;;;;;2208207;59;1575;-52
2023/02/13 18:15:55;;;;;;;;;;;;;;;;;;2207660;59;1906;-57
2023/02/13 18:18:25;;;;;;;;;;;;;;;;;;2207826;67;1191;-54
2023/02/13 18:20:56;;;;;;;;;;;;;;;;;;2206911;59;2523;-51
2023/02/13 18:23:26;;;;;;;;;;;;;;;;;;2205178;59;2385;-54
2023/02/13 18:26:06;;;;;;;;;;;;;;;;;;2206115;59;2037;-54
2023/02/13 18:28:36;;;;;;;;;;;;;;;;;;2203672;59;1983;-55
2023/02/13 18:31:07;;;;;;;;;;;;;;;;;;2207067;59;2001;-54
2023/02/13 18:33:38;;;;;;;;;;;;;;;;;;2207609;66;980;-54
2023/02/13 18:36:08;;;;;;;;;;;;;;;;;;2207849;59;1949;-53
2023/02/13 18:38:38;;;;;;;;;;;;;;;;;;2206772;59;2209;-52
2023/02/13 18:41:08;;;;;;;;;;;;;;;;;;2207946;59;1382;-55
2023/02/13 18:43:38;;;;;;;;;;;;;;;;;;2207005;59;2159;-53
2023/02/13 18:46:09;;;;;;;;;;;;;;;;;;2207653;66;1185;-53
2023/02/13 18:48:39;;;;;;;;;;;;;;;;;;2207397;59;1940;-55
2023/02/13 18:51:09;;;;;;;;;;;;;;;;;;2207119;59;1996;-54
2023/02/13 18:53:39;;;;;;;;;;;;;;;;;;2206616;59;2003;-53
2023/02/13 18:56:10;;;;;;;;;;;;;;;;;;2207709;67;1146;-56
2023/02/13 18:58:40;;;;;;;;;;;;;;;;;;2204064;59;2028;-52
2023/02/13 19:01:17;;;;;;;;;;;;;;;;;;2207144;59;1974;-56
2023/02/13 19:03:48;;;;;;;;;;;;;;;;;;2207418;59;1926;-54
2023/02/13 19:06:22;;;;;;;;;;;;;;;;;;2207781;67;1212;-57
2023/02/13 19:08:53;;;;;;;;;;;;;;;;;;2207361;59;2077;-54
2023/02/13 19:11:23;;;;;;;;;;;;;;;;;;2208142;59;2006;-52
2023/02/13 19:13:54;;;;;;;;;;;;;;;;;;2206721;59;2083;-54
2023/02/13 19:16:24;;;;;;;;;;;;;;;;;;2207835;67;1236;-55
2023/02/13 19:18:57;;;;;;;;;;;;;;;;;;2207800;59;2015;-53
2023/02/13 19:21:27;;;;;;;;;;;;;;;;;;2207068;67;2439;-54
2023/02/13 19:23:57;;;;;;;;;;;;;;;;;;2205370;59;2287;-54
2023/02/13 19:26:28;;;;;;;;;;;;;;;;;;2207006;67;1284;-53
2023/02/13 19:28:58;;;;;;;;;;;;;;;;;;2207767;59;2012;-53
2023/02/13 19:31:30;;;;;;;;;;;;;;;;;;2207797;59;1937;-55
2023/02/13 19:34:00;;;;;;;;;;;;;;;;;;2206677;59;2009;-56
2023/02/13 19:36:30;;;;;;;;;;;;;;;;;;2206579;59;2029;-52
2023/02/13 19:39:05;;;;;;;;;;;;;;;;;;2206423;59;2053;-53
2023/02/13 19:41:35;;;;;;;;;;;;;;;;;;2201821;59;1178;-53
2023/02/13 19:44:07;;;;;;;;;;;;;;;;;;2206596;59;1944;-53
2023/02/13 19:46:37;;;;;;;;;;;;;;;;;;2207442;59;1912;-52
2023/02/13 19:49:08;;;;;;;;;;;;;;;;;;2207277;59;1995;-52
2023/02/13 19:51:40;;;;;;;;;;;;;;;;;;2207037;59;1996;-54
2023/02/13 19:54:11;;;;;;;;;;;;;;;;;;2207055;59;2103;-53
2023/02/13 19:56:42;;;;;;;;;;;;;;;;;;2206942;66;1285;-52
2023/02/13 19:59:12;;;;;;;;;;;;;;;;;;2206231;59;2004;-55
2023/02/13 20:01:44;;;;;;;;;;;;;;;;;;2205710;59;2097;-56
2023/02/13 20:04:14;;;;;;;;;;;;;;;;;;2206905;59;1904;-51
2023/02/13 20:06:44;;;;;;;;;;;;;;;;;;2206750;67;1240;-56
2023/02/13 20:09:14;;;;;;;;;;;;;;;;;;2206282;59;2062;-54
2023/02/13 20:11:45;;;;;;;;;;;;;;;;;;2207013;59;1945;-56
2023/02/13 20:14:15;;;;;;;;;;;;;;;;;;2206951;59;1860;-53
2023/02/13 20:16:45;;;;;;;;;;;;;;;;;;2207817;66;1295;-54
2023/02/13 20:19:16;;;;;;;;;;;;;;;;;;2205680;59;2047;-51
2023/02/13 20:21:46;;;;;;;;;;;;;;;;;;2206729;59;2674;-54
2023/02/13 20:24:16;;;;;;;;;;;;;;;;;;2204661;59;2530;-54
2023/02/13 20:26:47;;;;;;;;;;;;;;;;;;2206474;67;1202;-54
2023/02/13 20:29:17;;;;;;;;;;;;;;;;;;2203327;59;1868;-55
2023/02/13 20:31:47;;;;;;;;;;;;;;;;;;2207284;66;1996;-53
2023/02/13 20:34:17;;;;;;;;;;;;;;;;;;2207285;59;2038;-52
2023/02/13 20:36:47;;;;;;;;;;;;;;;;;;2206848;59;2048;-52
2023/02/13 20:39:17;;;;;;;;;;;;;;;;;;2206926;67;1017;-57
2023/02/13 20:41:49;;;;;;;;;;;;;;;;;;2206514;59;1933;-55
2023/02/13 20:44:19;;;;;;;;;;;;;;;;;;2203531;67;1076;-52
2023/02/13 20:46:50;;;;;;;;;;;;;;;;;;2206239;59;1947;-52
2023/02/13 20:49:20;;;;;;;;;;;;;;;;;;2206253;66;1088;-57
2023/02/13 20:51:50;;;;;;;;;;;;;;;;;;2207128;59;2012;-55
2023/02/13 20:54:21;;;;;;;;;;;;;;;;;;2207271;67;1072;-52
2023/02/13 20:56:51;;;;;;;;;;;;;;;;;;2208388;59;2011;-55
2023/02/13 20:59:21;;;;;;;;;;;;;;;;;;2207886;59;1102;-53
2023/02/13 21:01:51;;;;;;;;;;;;;;;;;;2206825;59;1975;-52
2023/02/13 21:04:21;;;;;;;;;;;;;;;;;;2207266;67;1059;-54
2023/02/13 21:06:52;;;;;;;;;;;;;;;;;;2206348;59;1921;-51
2023/02/13 21:09:22;;;;;;;;;;;;;;;;;;2207308;59;1272;-53
2023/02/13 21:11:52;;;;;;;;;;;;;;;;;;2206418;59;1992;-51
2023/02/13 21:14:22;;;;;;;;;;;;;;;;;;2206848;59;2017;-51
2023/02/13 21:16:52;;;;;;;;;;;;;;;;;;2205255;59;1952;-53
2023/02/13 21:19:22;;;;;;;;;;;;;;;;;;2207589;66;1071;-53
2023/02/13 21:21:52;;;;;;;;;;;;;;;;;;2207595;59;2142;-55
2023/02/13 21:24:23;;;;;;;;;;;;;;;;;;2205586;59;2460;-55
2023/02/13 21:26:53;;;;;;;;;;;;;;;;;;2205603;59;2185;-55
2023/02/13 21:29:23;;;;;;;;;;;;;;;;;;2206883;59;1220;-55
2023/02/13 21:31:53;;;;;;;;;;;;;;;;;;2205959;59;1961;-54
2023/02/13 21:34:23;;;;;;;;;;;;;;;;;;2207091;66;1125;-53
2023/02/13 21:36:53;;;;;;;;;;;;;;;;;;2206188;59;2105;-53
2023/02/13 21:39:24;;;;;;;;;;;;;;;;;;2207710;67;1079;-53
2023/02/13 21:41:54;;;;;;;;;;;;;;;;;;2206518;59;1981;-56
2023/02/13 21:44:24;;;;;;;;;;;;;;;;;;2207540;66;1086;-54
2023/02/13 21:46:55;;;;;;;;;;;;;;;;;;2207058;59;2123;-53
2023/02/13 21:49:25;;;;;;;;;;;;;;;;;;2207743;66;1006;-55
2023/02/13 21:51:55;;;;;;;;;;;;;;;;;;2206933;59;1938;-55
2023/02/13 21:54:25;;;;;;;;;;;;;;;;;;2205668;59;2137;-52
2023/02/13 21:56:55;;;;;;;;;;;;;;;;;;2207443;63;18630;-55
2023/02/13 21:59:26;;;;;;;;;;;;;;;;;;2221371;58;1522;-57
2023/02/13 22:01:56;;;;;;;;;;;;;;;;;;2223477;58;2173;-57
2023/02/13 22:04:27;;;;;;;;;;;;;;;;;;2223418;58;2227;-57
2023/02/13 22:06:57;;;;;;;;;;;;;;;;;;2223175;66;1207;-54
2023/02/13 22:09:27;;;;;;;;;;;;;;;;;;2222685;66;1178;-57
2023/02/13 22:11:57;;;;;;;;;;;;;;;;;;2222030;58;2012;-56
2023/02/13 22:14:27;;;;;;;;;;;;;;;;;;2223232;66;1283;-54
2023/02/13 22:16:57;;;;;;;;;;;;;;;;;;2222326;66;1263;-57
2023/02/13 22:19:27;;;;;;;;;;;;;;;;;;2222884;66;1456;-58
2023/02/13 22:21:58;;;;;;;;;;;;;;;;;;2221417;58;2065;-56
2023/02/13 22:24:28;;;;;;;;;;;;;;;;;;2222035;58;1999;-58
2023/02/13 22:26:58;;;;;;;;;;;;;;;;;;2221781;66;1240;-57
2023/02/13 22:29:28;;;;;;;;;;;;;;;;;;2222977;58;1305;-55
2023/02/13 22:31:58;;;;;;;;;;;;;;;;;;2222784;66;1920;-54
2023/02/13 22:34:29;;;;;;;;;;;;;;;;;;2223345;66;1111;-53
2023/02/13 22:36:59;;;;;;;;;;;;;;;;;;2222864;66;1268;-56
2023/02/13 22:39:29;;;;;;;;;;;;;;;;;;2223190;66;1021;-55
2023/02/13 22:41:59;;;;;;;;;;;;;;;;;;2222763;58;1922;-54
2023/02/13 22:44:29;;;;;;;;;;;;;;;;;;2222961;66;1214;-55
2023/02/13 22:47:00;;;;;;;;;;;;;;;;;;2221949;66;1194;-56
2023/02/13 22:49:30;;;;;;;;;;;;;;;;;;2223130;66;1321;-53
2023/02/13 22:52:00;;;;;;;;;;;;;;;;;;2221674;58;1988;-55
2023/02/13 22:54:30;;;;;;;;;;;;;;;;;;2223049;66;1182;-57
2023/02/13 22:57:00;;;;;;;;;;;;;;;;;;2223218;66;1216;-59
2023/02/13 22:59:35;;;;;;;;;;;;;;;;;;2222159;66;1146;-56
2023/02/13 23:02:05;;;;;;;;;;;;;;;;;;2221961;58;2549;-57
2023/02/13 23:04:35;;;;;;;;;;;;;;;;;;2222415;66;1078;-58
2023/02/13 23:07:05;;;;;;;;;;;;;;;;;;2222851;66;1354;-57
2023/02/13 23:09:35;;;;;;;;;;;;;;;;;;2222179;58;1152;-58
2023/02/13 23:14:55;;;;;;;;;;;;;;;;;;2222417;66;997;-55
2023/02/13 23:20:14;;;;;;;;;;;;;;;;;;2222168;66;1044;-58
2023/02/13 23:22:44;;;;;;;;;;;;;;;;;;2221947;58;2232;-57
2023/02/13 23:25:15;;;;;;;;;;;;;;;;;;2222931;66;1161;-56
2023/02/13 23:27:45;;;;;;;;;;;;;;;;;;2222711;66;1216;-54
2023/02/13 23:30:16;;;;;;;;;;;;;;;;;;2221633;58;1334;-57
2023/02/13 23:32:46;;;;;;;;;;;;;;;;;;2222076;66;1931;-55
2023/02/13 23:35:16;;;;;;;;;;;;;;;;;;2222251;66;1001;-55
2023/02/13 23:37:46;;;;;;;;;;;;;;;;;;2221692;66;1827;-57
2023/02/13 23:40:16;;;;;;;;;;;;;;;;;;2222329;58;1935;-56
2023/02/13 23:42:47;;;;;;;;;;;;;;;;;;2222085;58;1656;-58
2023/02/13 23:45:17;;;;;;;;;;;;;;;;;;2223076;66;1122;-58
2023/02/13 23:47:47;;;;;;;;;;;;;;;;;;2223300;66;1202;-56
2023/02/13 23:50:17;;;;;;;;;;;;;;;;;;2222813;66;1011;-55
2023/02/13 23:52:47;;;;;;;;;;;;;;;;;;2220684;58;1937;-55
2023/02/13 23:55:18;;;;;;;;;;;;;;;;;;2221958;66;1154;-57
2023/02/13 23:57:50;;;;;;;;;;;;;;;;;;2222705;66;1272;-56
